Flight Track Log - Related Links

Times and Time Zones

All times are in EST time to prevent confusion due to time zone crossing. See the N654JR flight status page for this flight to view local times or setup timezone preferences in your user account.


Time Position Orientation Groundspeed Altitude Reporting Facility
EST Latitude Longitude Course Direction KTS MPH feet Rate Location/Type
Tue 05:10:06 PM 32.9667 -96.8333 140° Southeast 169 194 900  Level Dallas / Fort Worth TRACON
Tue 05:10:49 PM 32.9500 -96.8167 140° Southeast 100 115 1,500 742 Climbing Dallas / Fort Worth TRACON
Tue 05:11:43 PM 32.9167 -96.8167 180° South 124 143 2,100 750 Climbing Dallas / Fort Worth TRACON
Tue 05:12:49 PM 32.8833 -96.8167 180° South 130 150 3,000 429 Climbing Dallas / Fort Worth TRACON
Tue 05:13:49 PM 32.8667 -96.8500 239° Southwest 171 197 3,000  Level Dallas / Fort Worth TRACON
Tue 05:14:49 PM 32.8333 -96.8833 220° Southwest 178 205 3,000  Level Dallas / Fort Worth TRACON
Tue 05:15:49 PM 32.7833 -96.8833 180° South 165 190 3,000  Level Dallas / Fort Worth TRACON
Tue 05:16:49 PM 32.7333 -96.8833 180° South 167 192 3,000 150 Level Dallas / Fort Worth TRACON
Tue 05:17:49 PM 32.6833 -96.8833 180° South 166 191 3,300 650 Climbing Dallas / Fort Worth TRACON
Tue 05:18:49 PM 32.6500 -96.8833 180° South 122 140 4,300 908 Climbing Dallas / Fort Worth TRACON
Tue 05:19:48 PM 32.6167 -96.8833 180° South 122 140 5,100 791 Climbing Dallas / Fort Worth TRACON
Tue 05:20:20 PM 32.5981 -96.8917 201° Southwest 125 144 5,500 574 Climbing Fort Worth Center
Tue 05:21:22 PM 32.5611 -96.8917 180° South 130 150 6,000 242 Climbing Fort Worth Center
Tue 05:22:24 PM 32.5092 -96.8925 181° South 167 192 6,000 677 Level Fort Worth Center
Tue 05:23:26 PM 32.4733 -96.8903 177° South 125 144 7,400 1,104 Climbing Fort Worth Center
Tue 05:24:29 PM 32.4400 -96.8878 176° South 112 129 8,300 768 Climbing Fort Worth Center
Tue 05:25:31 PM 32.4083 -96.8833 173° South 113 130 9,000 339 Climbing Fort Worth Center
Tue 05:26:33 PM 32.3644 -96.8789 175° South 157 181 9,000  Level Fort Worth Center
Tue 05:27:35 PM 32.3178 -96.8739 175° South 164 189 9,000  Level Fort Worth Center
Tue 05:28:37 PM 32.2694 -96.8692 175° South 170 196 9,000 -48 Level Fort Worth Center
Tue 05:29:39 PM 32.2228 -96.8567 167° South 173 199 8,900 -48 Descending Fort Worth Center
Tue 05:30:41 PM 32.1747 -96.8411 165° South 174 200 8,900  Level Fort Worth Center
Tue 05:31:43 PM 32.1267 -96.8286 168° South 175 201 8,900  Level Fort Worth Center
Tue 05:32:45 PM 32.0689 -96.8133 167° South 175 201 8,900  Level Fort Worth Center
Tue 05:33:47 PM 32.0211 -96.7997 166° South 176 203 8,900  Level Fort Worth Center
Tue 05:34:50 PM 31.9731 -96.7869 167° South 176 203 8,900 48 Level Fort Worth Center
Tue 05:35:52 PM 31.9247 -96.7736 167° South 176 203 9,000 48 Climbing Fort Worth Center
Tue 05:36:54 PM 31.8742 -96.7597 167° South 176 203 9,000  Level Fort Worth Center
Tue 05:37:45 PM 31.8314 -96.7481 167° South 177 204 9,000  Level Houston Center
Tue 05:38:47 PM 31.7836 -96.7356 167° South 177 204 9,000  Level Houston Center
Tue 05:39:49 PM 31.7361 -96.7217 166° South 177 204 9,000  Level Houston Center
Tue 05:40:51 PM 31.6789 -96.7064 167° South 176 203 9,000  Level Houston Center
Tue 05:41:54 PM 31.6306 -96.6939 168° South 176 203 9,000  Level Houston Center
Tue 05:42:56 PM 31.5806 -96.6806 167° South 178 205 9,000  Level Houston Center
Tue 05:43:58 PM 31.5322 -96.6675 167° South 178 205 9,000 -48 Level Houston Center
Tue 05:45:00 PM 31.4817 -96.6536 167° South 178 205 8,900  Descending Houston Center
Tue 05:46:02 PM 31.4308 -96.6403 167° South 181 208 9,000 48 Climbing Houston Center
Tue 05:47:04 PM 31.3822 -96.6281 168° South 182 209 9,000  Level Houston Center
Tue 05:48:06 PM 31.3242 -96.6111 166° South 182 209 9,000  Level Houston Center
Tue 05:49:08 PM 31.2739 -96.5986 168° South 182 209 9,000  Level Houston Center
Tue 05:50:11 PM 31.2239 -96.5847 167° South 182 209 9,000  Level Houston Center
Tue 05:51:13 PM 31.1739 -96.5708 167° South 182 209 9,000  Level Houston Center
Tue 05:52:15 PM 31.1236 -96.5586 168° South 182 209 9,000  Level Houston Center
Tue 05:53:17 PM 31.0725 -96.5439 166° South 182 209 9,000  Level Houston Center
Tue 05:54:19 PM 31.0217 -96.5314 168° South 182 209 9,000  Level Houston Center
Tue 05:55:21 PM 30.9714 -96.5172 166° South 183 211 9,000  Level Houston Center
Tue 05:56:23 PM 30.9122 -96.5011 167° South 183 211 9,000  Level Houston Center
Tue 05:57:26 PM 30.8619 -96.4881 167° South 183 211 9,000  Level Houston Center
Tue 05:58:24 PM 30.8114 -96.4750 167° South 184 212 9,000  Level Houston Center
Tue 05:58:28 PM 30.8114 -96.4744 90° East 183 211 9,000  Level Houston Center
Tue 05:59:19 PM 30.7642 -96.4633 169° South 184 212 9,000  Level Houston Center
Tue 05:59:30 PM 30.7617 -96.4622 159° South 183 211 9,000  Level Houston Center
Tue 06:00:20 PM 30.7169 -96.4514 168° South 182 209 9,000  Level Houston Center
Tue 06:00:32 PM 30.7117 -96.4489 158° South 183 211 9,000  Level Houston Center
Tue 06:01:15 PM 30.6697 -96.4372 167° South 180 207 9,000  Level Houston Center
Tue 06:01:34 PM 30.6614 -96.4350 167° South 183 211 9,000  Level Houston Center
Tue 06:02:16 PM 30.6228 -96.4256 168° South 180 207 9,000  Level Houston Center
Tue 06:02:36 PM 30.6119 -96.4231 169° South 182 209 9,000  Level Houston Center
Tue 06:03:18 PM 30.5711 -96.4094 164° South 181 208 9,000  Level Houston Center
Tue 06:03:38 PM 30.5553 -96.4006 154° Southeast 183 211 9,000  Level Houston Center
Tue 06:04:24 PM 30.5167 -96.3864 162° South 182 209 9,000 -95 Level Houston Center
Tue 06:04:41 PM 30.5061 -96.3819 160° South 183 211 8,900 -484 Descending Houston Center
Tue 06:05:26 PM 30.4647 -96.3678 164° South 190 219 8,500 -484 Descending Houston Center
Tue 06:05:43 PM 30.4542 -96.3622 156° South 189 217 8,400 -393 Descending Houston Center
Tue 06:06:27 PM 30.4128 -96.3469 162° South 202 232 8,100 -387 Descending Houston Center
Tue 06:06:45 PM 30.4097 -96.3442 142° Southeast 195 224 8,000 -590 Descending Houston Center
Tue 06:07:28 PM 30.3753 -96.3003 132° Southeast 196 226 7,500 -677 Descending Houston Center
Tue 06:07:47 PM 30.3656 -96.2900 138° Southeast 196 226 7,300 -393 Descending Houston Center
Tue 06:08:29 PM 30.3397 -96.2511 128° Southeast 195 224 7,100 -484 Descending Houston Center
Tue 06:08:49 PM 30.3322 -96.2400 128° Southeast 195 224 6,800 -581 Descending Houston Center
Tue 06:09:31 PM 30.3039 -96.2019 131° Southeast 194 223 6,500 -484 Descending Houston Center
Tue 06:09:51 PM 30.2975 -96.1922 127° Southeast 195 224 6,300 -492 Descending Houston Center
Tue 06:10:32 PM 30.2683 -96.1528 131° Southeast 193 222 6,000 -581 Descending Houston Center
Tue 06:10:53 PM 30.2581 -96.1347 123° Southeast 194 223 5,700 -484 Descending Houston Center
Tue 06:11:34 PM 30.2369 -96.1056 130° Southeast 191 220 5,500 -484 Descending Houston Center
Tue 06:11:55 PM 30.2242 -96.0872 129° Southeast 193 222 5,200 -455 Descending Houston Center
Tue 06:12:40 PM 30.1989 -96.0519 130° Southeast 186 214 5,000 -484 Descending Houston Center
Tue 06:12:57 PM 30.1914 -96.0400 126° Southeast 190 219 4,700 -492 Descending Houston Center
Tue 06:13:41 PM 30.1653 -96.0050 131° Southeast 190 219 4,500 -387 Descending Houston Center
Tue 06:13:59 PM 30.1617 -95.9961 115° Southeast 190 219 4,300 -600 Descending Houston Center
Tue 06:14:31 PM 30.1367 -95.9625 131° Southeast 193 222 4,000 -581 Descending Houston Center
Tue 06:15:01 PM 30.1208 -95.9386 127° Southeast 191 220 3,700 -448 Descending Houston Center
Tue 06:15:38 PM 30.1006 -95.9111 130° Southeast 190 219 3,500 -484 Descending Houston Center
Tue 06:16:03 PM 30.0881 -95.8919 127° Southeast 191 220 3,200 -492 Descending Houston Center
Tue 06:16:39 PM 30.0669 -95.8619 129° Southeast 187 215 3,000 -484 Descending Houston Center
Tue 06:17:05 PM 30.0558 -95.8442 126° Southeast 191 220 2,700 -492 Descending Houston Center
Tue 06:17:40 PM 30.0333 -95.8150 132° Southeast 186 214 2,500 -484 Descending Houston Center
Tue 06:18:07 PM 30.0225 -95.7981 126° Southeast 191 220 2,200 -436 Descending Houston Center
Tue 06:18:35 PM 30.0025 -95.7753 135° Southeast 189 217 2,100 -290 Descending Houston Center
Tue 06:19:09 PM 29.9864 -95.7586 138° Southeast 189 217 1,900  Descending Houston Center
Tue 06:19:49 PM 29.9517 -95.7450 161° South 173 199 2,100  Climbing Houston Center
Tue 06:20:11 PM 29.9367 -95.7419 170° South 188 216 1,900 -333 Descending Houston Center
Tue 06:20:43 PM 29.9100 -95.7233 149° Southeast 177 204 1,800 -290 Descending Houston Center
Tue 06:21:13 PM 29.8886 -95.7106 153° Southeast 160 184 1,600 -581 Descending Houston Center
Tue 06:21:45 PM 29.8636 -95.6975 156° South 174 200 1,200 -290 Descending Houston Center
Tue 06:22:15 PM 29.8467 -95.6872 152° Southeast 174 200 1,300 200 Climbing Houston Center

Login

Don't have an account? Register now (free) for customized features, flight alerts, and more!